createdAt,value
2022-12-11T00:01:24.015Z,-0.6
2022-12-11T00:11:24.155Z,-0.6
2022-12-11T00:21:24.423Z,-0.7
2022-12-11T00:31:25.369Z,-0.7
2022-12-11T00:41:25.595Z,-0.7
2022-12-11T00:51:26.747Z,-0.7
2022-12-11T01:01:27.191Z,-0.7
2022-12-11T01:11:27.292Z,-0.7
2022-12-11T01:21:27.394Z,-0.7
2022-12-11T01:31:28.042Z,-0.7
2022-12-11T01:41:28.766Z,-0.6
2022-12-11T01:51:29.133Z,-0.6
2022-12-11T02:01:30.105Z,-0.6
2022-12-11T02:11:30.453Z,-0.5
2022-12-11T02:21:30.750Z,-0.6
2022-12-11T02:31:31.388Z,-0.5
2022-12-11T02:41:31.480Z,-0.5
2022-12-11T02:51:31.931Z,-0.5
2022-12-11T03:01:32.966Z,-0.5
2022-12-11T03:21:33.847Z,-0.5
2022-12-11T03:31:34.254Z,-0.4
2022-12-11T03:41:40.641Z,-0.4
2022-12-11T03:51:41.526Z,-0.4
2022-12-11T04:01:42.303Z,-0.4
2022-12-11T04:11:43.108Z,-0.3
2022-12-11T04:21:43.469Z,-0.3
2022-12-11T04:31:43.800Z,-0.3
2022-12-11T04:41:44.385Z,-0.2
2022-12-11T04:51:45.396Z,-0.2
2022-12-11T05:01:45.650Z,-0.2
2022-12-11T05:21:46.896Z,-0.1
2022-12-11T05:31:47.553Z,-0.2
2022-12-11T05:41:48.504Z,-0.1
2022-12-11T05:51:49.073Z,-0.1
2022-12-11T06:01:49.977Z,-0.1
2022-12-11T06:11:50.420Z,-0.1
2022-12-11T06:21:50.925Z,-0.1
2022-12-11T06:31:51.782Z,-0.1
2022-12-11T06:41:52.681Z,-0.1
2022-12-11T06:51:53.366Z,-0.1
2022-12-11T07:01:53.542Z,-0.1
2022-12-11T07:11:54.443Z,-0.1
2022-12-11T07:31:55.428Z,0
2022-12-11T07:41:55.509Z,0
2022-12-11T07:51:56.363Z,0
2022-12-11T08:01:56.710Z,0
2022-12-11T08:11:56.761Z,0.1
2022-12-11T08:21:57.613Z,0.1
2022-12-11T08:31:58.497Z,0.1
2022-12-11T08:41:59.015Z,0.2
2022-12-11T08:51:59.376Z,0.2
2022-12-11T09:01:59.840Z,0.2
2022-12-11T09:12:00.421Z,0.2
2022-12-11T09:22:01.026Z,0.3
2022-12-11T09:32:01.206Z,0.3
2022-12-11T09:42:02.088Z,0.3
2022-12-11T09:52:03.084Z,0.4
2022-12-11T10:02:03.447Z,0.4
2022-12-11T10:12:03.987Z,0.4
2022-12-11T10:22:04.789Z,0.4
2022-12-11T10:32:05.653Z,0.4
2022-12-11T10:42:06.412Z,0.5
2022-12-11T10:52:07.290Z,0.4
2022-12-11T11:02:07.886Z,0.4
2022-12-11T11:12:08.317Z,0.5
2022-12-11T11:22:08.777Z,0.4
2022-12-11T11:32:09.406Z,0.4
2022-12-11T11:42:09.987Z,0.4
2022-12-11T11:52:10.638Z,0.4
2022-12-11T12:02:11.347Z,0.4
2022-12-11T12:12:12.325Z,0.4
2022-12-11T12:22:13.099Z,0.4
2022-12-11T12:32:13.816Z,0.5
2022-12-11T12:42:13.901Z,0.4
2022-12-11T12:52:14.394Z,0.5
2022-12-11T13:02:15.301Z,0.5
2022-12-11T13:12:15.601Z,0.5
2022-12-11T13:22:16.322Z,0.5
2022-12-11T13:32:17.196Z,0.5
2022-12-11T13:42:17.615Z,0.5
2022-12-11T13:52:18.056Z,0.5
2022-12-11T14:02:18.904Z,0.5
2022-12-11T14:12:19.600Z,0.5
2022-12-11T14:22:20.640Z,0.5
2022-12-11T14:32:21.264Z,0.5
2022-12-11T14:42:22.039Z,0.5
2022-12-11T14:52:22.149Z,0.5
2022-12-11T15:02:22.744Z,0.4
2022-12-11T15:12:22.906Z,0.5
2022-12-11T15:32:24.273Z,0.5
2022-12-11T15:42:24.861Z,0.4
2022-12-11T15:52:25.578Z,0.5
2022-12-11T16:02:26.300Z,0.5
2022-12-11T16:12:27.053Z,0.5
2022-12-11T16:22:27.836Z,0.5
2022-12-11T16:32:28.565Z,0.4
2022-12-11T16:42:29.426Z,0.4
2022-12-11T16:52:30.055Z,0.4
2022-12-11T17:02:31.147Z,0.4
2022-12-11T17:12:31.914Z,0.4
2022-12-11T17:22:32.995Z,0.5
2022-12-11T17:32:34.105Z,0.4
2022-12-11T17:42:34.381Z,0.4
2022-12-11T17:52:37.381Z,0.4
2022-12-11T18:02:35.546Z,0.4
2022-12-11T18:22:37.188Z,0.4
2022-12-11T18:32:37.923Z,0.4
2022-12-11T18:42:38.645Z,0.4
2022-12-11T18:52:39.720Z,0.4
2022-12-11T19:02:40.304Z,0.4
2022-12-11T19:12:40.959Z,0.4
2022-12-11T19:22:41.922Z,0.4
2022-12-11T19:32:42.592Z,0.4
2022-12-11T19:42:43.413Z,0.4
2022-12-11T19:52:46.260Z,0.4
2022-12-11T20:02:44.109Z,0.4
2022-12-11T20:12:45.022Z,0.3
2022-12-11T20:22:45.709Z,0.3
2022-12-11T20:32:45.892Z,0.3
2022-12-11T20:42:46.446Z,0.3
2022-12-11T20:52:46.886Z,0.3
2022-12-11T21:02:47.782Z,0.3
2022-12-11T21:12:48.194Z,0.3
2022-12-11T21:22:49.000Z,0.3
2022-12-11T21:32:49.345Z,0.2
2022-12-11T21:42:50.025Z,0.2
2022-12-11T21:52:50.186Z,0.2
2022-12-11T22:02:50.626Z,0.3
2022-12-11T22:22:52.539Z,0.3
2022-12-11T22:32:53.319Z,0.3
2022-12-11T22:42:54.293Z,0.3
2022-12-11T22:52:55.302Z,0.3
2022-12-11T23:02:56.162Z,0.2
2022-12-11T23:12:57.044Z,0.3
2022-12-11T23:22:57.287Z,0.3
2022-12-11T23:32:57.743Z,0.3
2022-12-11T23:42:58.823Z,0.3
2022-12-11T23:52:59.857Z,0.3
